PGUA/UAM METAR and TAF weather

Enter ICAO airport designator
Station Type Date Time Source
PGUA METAR 2021/05/11 00:56 UTC NOAA

PGUA 110056Z 09012KT 10SM BKN016 30/25 A2990 RMK AO2A SLP115 T02970245 $


Station Type Date Time Source
PGUA Decoded METAR 2021/05/11 00:56 UTC NOAA

Andersen, Mariana Is, Andersen Air Force Base, GU, United States (PGUA) 13-35N 144-56E 187M
May 10, 2021 - 08:56 PM EDT / 2021.05.11 0056 UTC
Wind: from the E (090 degrees) at 14 MPH (12 KT):0
Visibility: 10 mile(s):0
Sky conditions: mostly cloudy
Temperature: 85.5 F (29.7 C)
Heat index: 95.2 F (35.1 C):1
Dew Point: 76.1 F (24.5 C)
Relative Humidity: 73%
Pressure (altimeter): 29.9 in. Hg (1012 hPa)
ob: PGUA 110056Z 09012KT 10SM BKN016 30/25 A2990 RMK AO2A SLP115 T02970245
cycle: 1

Station Type Date Time Source
PGUA TAF 2021/05/11 02:05 UTC NOAA

TAF PGUA 110200Z 1102/1208 09012G18KT 9999 SCT015 QNH2983INS
TEMPO 1102/1109 10015G25KT 4800 -SHRA BKN015
TEMPO 1120/1206 10015G25KT 4800 -SHRA BKN015 TX30/1201Z TN25/1117Z

Example: see airport list